Time;durP1;ratioP1;P1;durP2;ratioP2;P2;SDS_P1;SDS_P2;PMS_P1;PMS_P2;Temp;Humidity;BMP_temperature;BMP_pressure;BME280_temperature;BME280_humidity;BME280_pressure;Samples;Min_cycle;Max_cycle;Signal;HPM_P1;HPM_P2
2021/05/01 00:00:54;;;;;;;9.82;6.68;;;;;;;5.95;63.96;96879.25;5027480;28;20079;-77
2021/05/01 00:03:20;;;;;;;10.95;6.85;;;;;;;5.99;63.75;96880.41;5010782;28;20025;-77
2021/05/01 00:05:45;;;;;;;11.07;7.50;;;;;;;6.02;63.22;96876.59;5010419;28;20086;-77
2021/05/01 00:08:10;;;;;;;9.18;6.53;;;;;;;6.03;63.39;96876.34;5027322;28;20072;-80
2021/05/01 00:10:36;;;;;;;10.00;5.95;;;;;;;5.99;63.20;96870.06;5026871;28;20060;-77
2021/05/01 00:13:01;;;;;;;10.48;6.43;;;;;;;5.97;62.82;96879.84;5010915;28;20083;-77
2021/05/01 00:15:26;;;;;;;8.73;5.95;;;;;;;5.94;63.50;96872.50;5041643;28;20283;-77
2021/05/01 00:17:52;;;;;;;8.25;5.35;;;;;;;5.90;63.05;96873.94;5027083;28;20044;-78
2021/05/01 00:20:19;;;;;;;10.50;7.03;;;;;;;5.89;63.06;96873.16;5028386;28;20397;-78
2021/05/01 00:22:45;;;;;;;12.07;7.75;;;;;;;5.85;63.03;96874.59;5030489;28;20033;-77
2021/05/01 00:25:11;;;;;;;9.93;7.30;;;;;;;5.88;63.38;96865.59;5046922;28;20029;-77
2021/05/01 00:27:36;;;;;;;10.05;6.60;;;;;;;5.88;62.86;96865.59;5028356;28;20369;-77
2021/05/01 00:30:04;;;;;;;10.98;7.93;;;;;;;5.72;63.07;96852.31;5028680;28;20026;-77
2021/05/01 00:32:29;;;;;;;12.00;7.00;;;;;;;5.77;63.17;96843.91;5011729;28;20040;-77
2021/05/01 00:34:54;;;;;;;13.30;8.52;;;;;;;5.73;63.86;96841.00;5028163;28;20033;-77
2021/05/01 00:37:20;;;;;;;11.27;7.55;;;;;;;5.75;63.73;96851.88;5023645;28;20033;-77
2021/05/01 00:39:45;;;;;;;10.23;7.35;;;;;;;5.78;63.25;96843.69;5011208;28;20034;-77
2021/05/01 00:42:10;;;;;;;11.35;7.72;;;;;;;5.73;63.94;96833.25;5027924;28;20268;-77
2021/05/01 00:44:36;;;;;;;15.23;9.25;;;;;;;5.75;63.92;96838.97;5029035;28;20500;-77
2021/05/01 00:47:01;;;;;;;12.18;8.13;;;;;;;5.73;64.01;96846.16;5012142;28;20087;-77
2021/05/01 00:49:27;;;;;;;12.70;8.27;;;;;;;5.72;64.51;96838.63;5027980;28;20063;-77
2021/05/01 00:51:52;;;;;;;10.50;7.18;;;;;;;5.70;64.01;96846.59;5028365;28;20527;-77
2021/05/01 00:54:17;;;;;;;12.50;7.47;;;;;;;5.74;63.99;96852.09;5029560;28;20043;-77
2021/05/01 00:56:43;;;;;;;13.55;8.35;;;;;;;5.79;63.14;96834.94;5028193;28;20033;-77
2021/05/01 00:59:08;;;;;;;13.88;7.97;;;;;;;5.69;63.08;96823.56;5007232;28;20171;-77
2021/05/01 01:01:34;;;;;;;15.40;9.00;;;;;;;5.66;64.32;96824.81;5025777;28;20056;-77
2021/05/01 01:03:59;;;;;;;13.23;8.43;;;;;;;5.66;63.91;96824.81;5012079;28;20049;-78
2021/05/01 01:06:24;;;;;;;12.55;8.27;;;;;;;5.66;63.86;96819.63;5037164;28;20041;-77
2021/05/01 01:08:50;;;;;;;15.00;9.45;;;;;;;5.59;64.09;96808.63;5048090;28;20036;-77
2021/05/01 01:11:15;;;;;;;13.65;8.73;;;;;;;5.52;63.99;96820.81;5048529;28;20060;-77
2021/05/01 01:13:41;;;;;;;13.75;9.05;;;;;;;5.45;64.06;96823.53;5015622;28;20033;-77
2021/05/01 01:16:06;;;;;;;13.77;8.93;;;;;;;5.45;63.86;96823.53;5032078;28;20032;-77
2021/05/01 01:18:33;;;;;;;12.05;8.52;;;;;;;5.44;64.22;96819.34;5015787;28;20120;-77
2021/05/01 01:21:00;;;;;;;15.40;8.80;;;;;;;5.50;64.20;96821.06;5031416;28;20041;-77
2021/05/01 01:23:26;;;;;;;14.35;8.88;;;;;;;5.43;63.92;96816.00;5015384;28;20045;-77
2021/05/01 01:25:52;;;;;;;14.55;8.65;;;;;;;5.42;64.42;96822.16;5033428;28;20037;-78
2021/05/01 01:28:18;;;;;;;12.80;8.60;;;;;;;5.42;64.58;96829.13;5031538;28;20041;-77
2021/05/01 01:30:43;;;;;;;14.73;9.50;;;;;;;5.52;63.72;96820.81;5032369;28;20052;-77
2021/05/01 01:33:09;;;;;;;13.00;7.82;;;;;;;5.62;62.85;96818.50;5032005;28;20049;-77
2021/05/01 01:35:37;;;;;;;11.45;7.75;;;;;;;5.60;62.63;96825.69;5048784;28;20045;-77
2021/05/01 01:38:03;;;;;;;14.15;8.45;;;;;;;5.52;62.94;96836.31;5031369;28;20032;-77
2021/05/01 01:40:31;;;;;;;12.88;8.57;;;;;;;5.54;62.58;96831.75;5031161;28;20045;-77
2021/05/01 01:42:57;;;;;;;14.20;8.93;;;;;;;5.60;62.56;96833.44;4995950;28;20026;-77
2021/05/01 01:45:27;;;;;;;13.27;7.82;;;;;;;5.55;62.20;96841.03;5030846;28;20084;-77
2021/05/01 01:47:53;;;;;;;11.10;7.43;;;;;;;5.43;62.18;96841.81;5031415;28;20032;-77
2021/05/01 01:50:19;;;;;;;12.10;8.05;;;;;;;5.37;62.53;96836.72;5014793;28;20029;-78
2021/05/01 01:52:44;;;;;;;8.88;5.90;;;;;;;5.33;62.48;96838.16;5031766;28;20057;-78
2021/05/01 01:55:11;;;;;;;12.07;6.72;;;;;;;5.26;62.52;96835.69;5048979;28;20484;-78
2021/05/01 01:57:37;;;;;;;10.68;6.35;;;;;;;5.15;62.72;96839.78;5030760;28;20034;-78
2021/05/01 02:00:08;;;;;;;10.23;6.35;;;;;;;5.00;63.03;96841.94;5032278;28;20459;-78
2021/05/01 02:02:33;;;;;;;9.05;5.53;;;;;;;5.05;62.43;96824.03;5031090;28;20029;-77
2021/05/01 02:04:58;;;;;;;10.35;6.30;;;;;;;5.19;62.68;96834.97;5048003;28;20076;-78
2021/05/01 02:07:24;;;;;;;10.55;6.45;;;;;;;5.24;62.00;96827.34;5030942;28;20056;-77
2021/05/01 02:09:49;;;;;;;9.90;6.15;;;;;;;5.32;62.16;96839.19;5031569;28;20051;-78
2021/05/01 02:12:14;;;;;;;10.00;6.47;;;;;;;5.33;62.45;96836.38;5031095;28;20539;-77
2021/05/01 02:14:40;;;;;;;9.85;6.80;;;;;;;5.40;61.92;96842.25;5014621;28;20049;-77
2021/05/01 02:17:05;;;;;;;11.75;7.57;;;;;;;5.27;62.27;96841.63;5029718;28;20032;-77
2021/05/01 02:19:30;;;;;;;11.50;7.55;;;;;;;5.36;62.54;96846.25;5030516;28;20037;-77
2021/05/01 02:21:56;;;;;;;8.98;6.28;;;;;;;5.25;62.83;96847.78;5032804;28;20084;-77
2021/05/01 02:24:21;;;;;;;11.55;6.95;;;;;;;5.14;62.72;96837.41;5031262;28;20083;-78
2021/05/01 02:26:47;;;;;;;11.45;7.25;;;;;;;5.17;62.51;96842.13;5031903;28;20041;-77
2021/05/01 02:29:12;;;;;;;12.50;7.82;;;;;;;5.11;63.30;96837.88;5030672;28;20037;-77
2021/05/01 02:31:37;;;;;;;9.85;6.70;;;;;;;5.00;63.06;96842.75;5046977;28;20033;-77
2021/05/01 02:34:03;;;;;;;11.18;7.63;;;;;;;4.90;63.68;96844.25;5014476;28;20029;-77
2021/05/01 02:36:28;;;;;;;11.70;7.45;;;;;;;4.82;63.58;96829.84;5030558;28;20428;-77
2021/05/01 02:38:54;;;;;;;10.43;6.90;;;;;;;4.82;63.93;96830.63;5047568;28;20034;-77
2021/05/01 02:41:22;;;;;;;11.40;7.10;;;;;;;4.69;63.93;96816.09;5013956;28;20695;-78
2021/05/01 02:43:47;;;;;;;12.18;7.90;;;;;;;4.76;63.66;96825.53;5014696;28;20035;-78
2021/05/01 02:46:13;;;;;;;12.27;7.78;;;;;;;4.82;63.27;96824.69;5047233;28;20029;-77
2021/05/01 02:48:38;;;;;;;12.30;7.65;;;;;;;4.74;63.99;96814.66;5030461;28;20060;-78
2021/05/01 02:51:04;;;;;;;11.18;7.25;;;;;;;4.72;64.31;96819.25;5014443;28;20128;-78
2021/05/01 02:53:29;;;;;;;11.75;7.43;;;;;;;4.73;64.49;96815.66;5013930;28;20495;-77
2021/05/01 02:55:54;;;;;;;11.70;7.40;;;;;;;4.75;63.91;96821.41;5032630;28;20064;-77
2021/05/01 02:58:20;;;;;;;13.95;8.50;;;;;;;4.84;63.88;96812.38;5031944;28;20033;-77
2021/05/01 03:00:45;;;;;;;12.07;8.40;;;;;;;4.75;64.20;96813.66;5030810;28;20042;-77
2021/05/01 03:03:11;;;;;;;13.50;8.10;;;;;;;4.78;64.01;96800.31;5030559;28;20037;-78
2021/05/01 03:05:36;;;;;;;14.18;8.07;;;;;;;4.75;64.06;96804.13;5030126;28;20065;-77
2021/05/01 03:08:01;;;;;;;13.05;8.35;;;;;;;4.73;64.62;96800.19;5029805;28;20473;-77
2021/05/01 03:10:27;;;;;;;13.45;8.38;;;;;;;4.72;64.35;96793.47;5046657;28;20196;-77
2021/05/01 03:12:53;;;;;;;14.07;8.93;;;;;;;4.80;63.84;96806.84;5030719;28;20116;-77
2021/05/01 03:15:19;;;;;;;14.85;8.55;;;;;;;4.79;64.03;96799.31;5030706;28;20056;-77
2021/05/01 03:17:46;;;;;;;14.40;8.90;;;;;;;4.69;64.70;96800.63;5030178;28;20041;-77
2021/05/01 03:20:13;;;;;;;14.23;9.60;;;;;;;4.67;64.66;96807.78;5046854;28;20029;-77
2021/05/01 03:22:38;;;;;;;14.98;9.30;;;;;;;4.76;64.84;96799.75;5031200;28;20345;-78
2021/05/01 03:25:06;;;;;;;14.82;8.40;;;;;;;4.73;64.20;96802.75;5030696;28;20123;-78
2021/05/01 03:27:32;;;;;;;15.43;9.55;;;;;;;4.75;64.48;96796.41;5013635;28;20381;-78
2021/05/01 03:29:57;;;;;;;14.98;9.40;;;;;;;4.77;64.73;96804.69;4997360;28;20033;-78
2021/05/01 03:32:23;;;;;;;14.48;9.23;;;;;;;4.70;64.18;96791.09;5034199;28;20032;-78
2021/05/01 03:34:48;;;;;;;15.30;9.55;;;;;;;4.62;64.37;96784.44;5030218;28;20029;-77
2021/05/01 03:37:13;;;;;;;15.77;10.35;;;;;;;4.60;65.02;96794.16;5030103;28;20099;-77
2021/05/01 03:39:39;;;;;;;17.30;10.63;;;;;;;4.60;64.82;96785.66;5030249;28;20128;-78
2021/05/01 03:42:05;;;;;;;16.63;10.60;;;;;;;4.57;64.57;96780.94;5029920;28;20385;-77
2021/05/01 03:44:30;;;;;;;15.63;9.80;;;;;;;4.63;64.48;96790.38;5029863;28;20037;-77
2021/05/01 03:46:55;;;;;;;16.27;10.40;;;;;;;4.61;64.98;96788.03;5046420;28;20035;-77
2021/05/01 03:49:21;;;;;;;19.63;12.10;;;;;;;4.56;64.92;96782.72;5045932;28;20068;-77
2021/05/01 03:51:46;;;;;;;19.98;11.52;;;;;;;4.50;65.61;96788.72;5029813;28;20727;-77
2021/05/01 03:54:12;;;;;;;17.15;11.18;;;;;;;4.50;65.41;96781.00;5029949;28;20352;-77
2021/05/01 03:56:37;;;;;;;20.85;11.73;;;;;;;4.48;65.22;96783.78;5030272;28;20038;-77
2021/05/01 03:59:03;;;;;;;17.35;10.82;;;;;;;4.48;65.05;96775.28;5046406;28;20092;-77
2021/05/01 04:01:28;;;;;;;17.73;10.80;;;;;;;4.43;65.34;96781.06;5029149;28;20037;-77
2021/05/01 04:03:54;;;;;;;16.38;11.52;;;;;;;4.41;64.96;96771.97;5013230;28;20108;-77
2021/05/01 04:06:19;;;;;;;20.10;11.45;;;;;;;4.40;65.56;96772.97;5029241;28;20102;-77
2021/05/01 04:08:45;;;;;;;18.35;11.25;;;;;;;4.40;65.28;96775.56;5045413;28;20044;-78
2021/05/01 04:11:11;;;;;;;15.65;10.30;;;;;;;4.40;65.06;96765.25;5031921;28;20033;-78
2021/05/01 04:13:43;;;;;;;16.75;10.77;;;;;;;4.39;64.66;96766.25;5029088;28;20028;-78
2021/05/01 04:16:08;;;;;;;17.13;10.23;;;;;;;4.36;65.04;96758.94;5045486;28;20029;-77
2021/05/01 04:18:33;;;;;;;17.63;10.73;;;;;;;4.37;64.75;96760.50;5028532;28;20029;-77
2021/05/01 04:20:59;;;;;;;17.63;10.93;;;;;;;4.39;65.17;96761.88;5012662;28;20030;-77
2021/05/01 04:23:24;;;;;;;17.58;10.15;;;;;;;4.32;65.47;96758.59;5012540;28;20041;-77
2021/05/01 04:25:49;;;;;;;19.25;11.25;;;;;;;4.37;65.28;96761.31;5028855;28;20091;-78
2021/05/01 04:28:15;;;;;;;17.58;10.05;;;;;;;4.45;65.54;96771.31;5012135;28;20392;-78
2021/05/01 04:30:40;;;;;;;18.35;11.50;;;;;;;4.44;65.73;96758.66;5051687;28;20029;-77
2021/05/01 04:33:06;;;;;;;15.82;10.00;;;;;;;4.51;65.48;96749.06;5029162;28;20045;-77
2021/05/01 04:35:31;;;;;;;16.70;10.45;;;;;;;4.58;65.60;96749.78;5012245;28;20033;-77
2021/05/01 04:37:56;;;;;;;18.20;11.05;;;;;;;4.62;65.65;96748.31;5045183;28;20048;-77
2021/05/01 04:40:24;;;;;;;21.30;12.20;;;;;;;4.61;66.37;96739.03;5028909;28;20056;-77
2021/05/01 04:42:51;;;;;;;20.15;11.15;;;;;;;4.73;66.16;96749.41;5028979;28;20040;-77
2021/05/01 04:45:18;;;;;;;20.92;11.60;;;;;;;4.79;65.69;96740.00;5045222;28;20045;-77
2021/05/01 04:47:44;;;;;;;19.23;10.45;;;;;;;4.80;65.76;96744.19;5012152;28;20465;-77
2021/05/01 04:50:11;;;;;;;19.95;11.15;;;;;;;4.82;65.99;96742.94;5012359;28;20026;-78
2021/05/01 04:52:36;;;;;;;19.42;11.60;;;;;;;4.90;66.09;96751.38;5028522;28;20032;-77
2021/05/01 04:55:09;;;;;;;19.90;11.88;;;;;;;4.91;66.05;96750.38;5031547;28;20041;-77
2021/05/01 04:57:34;;;;;;;21.70;11.82;;;;;;;4.97;66.11;96754.66;5044331;28;20042;-77
2021/05/01 04:59:59;;;;;;;19.77;11.73;;;;;;;5.08;66.30;96766.81;5011064;28;20040;-78
2021/05/01 05:02:25;;;;;;;17.48;11.25;;;;;;;5.19;66.39;96767.84;5028326;28;20029;-77
2021/05/01 05:04:50;;;;;;;21.05;12.95;;;;;;;5.34;66.55;96770.81;5027061;28;20029;-78
2021/05/01 05:07:16;;;;;;;19.13;12.05;;;;;;;5.54;66.16;96767.97;5010598;28;20033;-77
2021/05/01 05:09:41;;;;;;;18.17;11.10;;;;;;;5.76;65.58;96775.97;5044296;28;20528;-77
2021/05/01 05:12:07;;;;;;;18.70;12.57;;;;;;;5.93;65.78;96783.03;5027808;28;20121;-77
2021/05/01 05:14:32;;;;;;;19.42;11.80;;;;;;;6.18;64.79;96791.41;5026121;28;20037;-77
2021/05/01 05:16:58;;;;;;;18.33;10.85;;;;;;;6.31;63.39;96790.41;5035380;28;20049;-77
2021/05/01 05:19:23;;;;;;;19.95;11.38;;;;;;;6.34;62.44;96789.94;5011252;28;20026;-77
2021/05/01 05:21:48;;;;;;;18.67;10.75;;;;;;;6.44;62.76;96796.34;5049217;28;20030;-77
2021/05/01 05:24:14;;;;;;;15.63;10.20;;;;;;;6.47;62.79;96794.09;5052164;28;20033;-77
2021/05/01 05:26:39;;;;;;;17.05;10.02;;;;;;;6.49;62.18;96793.84;5011952;28;20115;-77
2021/05/01 05:29:05;;;;;;;15.32;10.38;;;;;;;6.54;61.77;96799.91;5028494;28;20030;-77
2021/05/01 05:31:30;;;;;;;17.95;10.77;;;;;;;6.60;62.47;96807.78;5044988;28;20140;-77
2021/05/01 05:33:55;;;;;;;20.48;12.45;;;;;;;6.60;62.76;96807.78;5028494;28;20492;-77
2021/05/01 05:36:21;;;;;;;18.63;11.88;;;;;;;6.68;62.57;96810.81;5028423;28;20128;-77
2021/05/01 05:38:46;;;;;;;18.45;11.05;;;;;;;6.72;63.33;96801.59;5028259;28;20339;-77
2021/05/01 05:41:11;;;;;;;20.05;12.18;;;;;;;6.81;63.24;96796.06;5044542;28;20120;-77
2021/05/01 05:43:37;;;;;;;19.00;12.43;;;;;;;6.88;62.80;96800.06;5028293;28;20040;-78
2021/05/01 05:46:13;;;;;;;23.58;13.80;;;;;;;7.01;63.83;96788.69;5028794;28;20029;-78
2021/05/01 05:48:39;;;;;;;22.98;13.60;;;;;;;7.13;63.28;96786.84;5038121;28;20029;-78
2021/05/01 05:51:06;;;;;;;19.80;12.60;;;;;;;7.26;63.58;96790.94;5009225;28;20420;-78
2021/05/01 05:53:32;;;;;;;20.65;12.77;;;;;;;7.37;63.07;96793.69;5031665;28;20025;-77
2021/05/01 05:55:58;;;;;;;18.38;13.38;;;;;;;7.39;63.46;96782.09;5014810;28;20036;-78
2021/05/01 05:58:24;;;;;;;20.17;12.95;;;;;;;7.45;62.84;96773.41;5031971;28;20397;-77
2021/05/01 06:00:49;;;;;;;17.67;12.25;;;;;;;7.60;62.27;96772.84;5052135;28;20489;-77
2021/05/01 06:03:16;;;;;;;18.20;12.60;;;;;;;7.67;62.73;96789.03;5031740;28;20039;-77
2021/05/01 06:05:44;;;;;;;19.88;12.65;;;;;;;7.75;62.49;96792.28;5031685;28;20109;-77
2021/05/01 06:08:10;;;;;;;20.00;11.60;;;;;;;7.99;62.79;96785.91;5031126;28;20180;-77
2021/05/01 06:10:37;;;;;;;22.17;13.35;;;;;;;8.15;62.51;96778.34;5031647;28;20369;-77
2021/05/01 06:13:03;;;;;;;22.05;13.55;;;;;;;8.31;61.79;96787.91;5047986;28;20436;-77
2021/05/01 06:15:29;;;;;;;19.50;12.65;;;;;;;8.46;61.86;96792.53;5015507;28;20029;-77
2021/05/01 06:17:58;;;;;;;20.27;12.80;;;;;;;8.44;61.64;96779.78;5031492;28;20457;-77
2021/05/01 06:20:23;;;;;;;19.30;12.48;;;;;;;8.61;60.38;96784.94;5031423;28;20296;-77
2021/05/01 06:22:50;;;;;;;20.60;13.45;;;;;;;8.66;60.09;96783.44;5048274;28;20067;-77
2021/05/01 06:25:15;;;;;;;22.08;15.77;;;;;;;8.64;60.40;96783.69;5032853;28;20041;-78
2021/05/01 06:27:41;;;;;;;19.20;13.23;;;;;;;8.85;60.21;96791.72;5030815;28;20040;-77
2021/05/01 06:30:09;;;;;;;17.75;12.25;;;;;;;8.86;59.78;96793.25;5014237;28;20029;-77
2021/05/01 06:32:34;;;;;;;22.13;15.93;;;;;;;9.01;59.06;96788.25;5031516;28;20075;-77
2021/05/01 06:35:00;;;;;;;22.00;12.63;;;;;;;8.98;59.54;96789.53;5047442;28;20033;-77
2021/05/01 06:37:27;;;;;;;21.10;13.82;;;;;;;9.23;58.83;96798.59;5013979;28;20448;-78
2021/05/01 06:39:56;;;;;;;19.63;13.77;;;;;;;9.50;57.71;96801.22;5019513;28;20040;-78
2021/05/01 06:42:30;;;;;;;18.55;12.55;;;;;;;9.62;57.57;96808.84;5029118;28;20441;-77
2021/05/01 06:45:02;;;;;;;21.55;12.90;;;;;;;9.52;57.63;96809.53;5031258;28;20057;-77
2021/05/01 06:47:31;;;;;;;18.80;12.65;;;;;;;9.55;57.34;96796.06;5046529;28;20033;-78
2021/05/01 06:50:09;;;;;;;18.40;13.23;;;;;;;9.56;56.78;96792.44;5014045;28;20064;-77
2021/05/01 06:52:45;;;;;;;19.50;12.35;;;;;;;9.53;56.89;96799.94;5013719;28;20124;-77
2021/05/01 06:55:13;;;;;;;19.45;12.15;;;;;;;9.71;56.97;96807.34;5014733;28;20496;-78
2021/05/01 06:57:49;;;;;;;18.95;12.52;;;;;;;9.63;57.29;96812.22;5011757;28;20033;-78
2021/05/01 07:00:17;;;;;;;20.83;13.13;;;;;;;10.01;56.71;96818.28;5041759;28;20478;-78
2021/05/01 07:02:44;;;;;;;19.65;12.77;;;;;;;10.02;56.16;96820.59;5029877;28;20496;-78
2021/05/01 07:05:18;;;;;;;21.70;13.60;;;;;;;10.17;55.01;96817.34;5030235;28;20477;-77
2021/05/01 07:07:44;;;;;;;18.88;12.75;;;;;;;10.12;56.15;96822.50;5012404;28;20076;-78
2021/05/01 07:10:10;;;;;;;18.85;13.02;;;;;;;10.15;55.83;96814.19;5024886;28;20484;-77
2021/05/01 07:12:37;;;;;;;20.90;12.82;;;;;;;10.07;56.19;96809.47;5031088;28;20048;-77
2021/05/01 07:15:04;;;;;;;21.20;13.93;;;;;;;10.11;56.12;96805.34;5010583;28;20056;-77
2021/05/01 07:17:30;;;;;;;21.38;13.38;;;;;;;10.03;55.38;96787.59;5030854;28;20038;-77
2021/05/01 07:19:58;;;;;;;20.95;13.32;;;;;;;10.09;55.88;96791.78;5029117;28;20444;-76
2021/05/01 07:22:24;;;;;;;23.20;14.43;;;;;;;10.52;55.60;96779.59;5006658;28;20433;-77
2021/05/01 07:24:49;;;;;;;21.55;13.63;;;;;;;10.41;55.50;96789.13;5029234;28;20033;-76
2021/05/01 07:27:14;;;;;;;22.83;13.65;;;;;;;10.42;55.18;96789.94;5028496;28;20148;-76
2021/05/01 07:29:41;;;;;;;21.15;13.95;;;;;;;10.84;54.71;96786.47;5015296;28;20040;-76
2021/05/01 07:32:10;;;;;;;20.58;13.75;;;;;;;10.84;53.71;96789.06;5029261;28;20034;-76
2021/05/01 07:34:36;;;;;;;26.00;15.82;;;;;;;11.03;53.19;96794.59;5012794;28;20496;-77
2021/05/01 07:37:07;;;;;;;25.52;15.73;;;;;;;10.80;53.09;96788.81;5029202;28;20026;-76
2021/05/01 07:39:33;;;;;;;24.40;15.25;;;;;;;10.84;53.49;96796.88;5012188;28;20029;-76
2021/05/01 07:42:01;;;;;;;24.92;15.57;;;;;;;10.32;54.23;96808.09;5029147;28;20112;-76
2021/05/01 07:44:30;;;;;;;25.52;16.55;;;;;;;10.38;54.42;96804.47;5044648;28;20033;-76
2021/05/01 07:46:57;;;;;;;24.10;15.30;;;;;;;10.22;54.56;96798.38;5027978;28;20120;-76
2021/05/01 07:49:24;;;;;;;25.77;15.60;;;;;;;10.61;54.10;96779.88;5038154;28;20087;-77
2021/05/01 07:51:50;;;;;;;25.52;15.77;;;;;;;10.74;53.52;96787.22;5044722;28;20496;-77
2021/05/01 07:54:15;;;;;;;24.15;14.98;;;;;;;10.76;53.44;96789.56;5011375;28;20369;-77
2021/05/01 07:56:41;;;;;;;21.80;13.68;;;;;;;10.85;53.27;96803.69;5016814;28;20115;-76
2021/05/01 07:59:07;;;;;;;23.25;14.90;;;;;;;10.90;53.34;96801.09;5028367;28;20037;-76
2021/05/01 08:01:32;;;;;;;21.38;13.35;;;;;;;11.18;52.46;96796.47;5000445;28;20041;-76
2021/05/01 08:03:58;;;;;;;33.53;21.63;;;;;;;11.05;53.29;96797.72;5009834;28;20389;-76
2021/05/01 08:06:24;;;;;;;19.90;13.52;;;;;;;10.65;53.45;96783.53;5027234;28;20040;-75
2021/05/01 08:08:49;;;;;;;20.77;14.02;;;;;;;10.61;53.50;96793.69;5026902;28;20075;-76
2021/05/01 08:11:15;;;;;;;20.65;13.75;;;;;;;11.06;53.26;96800.09;5043772;28;20493;-76
2021/05/01 08:13:40;;;;;;;22.48;12.43;;;;;;;11.39;51.80;96797.28;5026731;28;20096;-76
2021/05/01 08:16:06;;;;;;;18.98;13.10;;;;;;;11.68;52.11;96805.41;5028260;28;20443;-76
2021/05/01 08:18:31;;;;;;;17.05;11.68;;;;;;;11.78;51.25;96804.63;5010453;28;20029;-76
2021/05/01 08:20:56;;;;;;;17.73;12.00;;;;;;;12.04;51.08;96808.03;5027165;28;20033;-77
2021/05/01 08:23:22;;;;;;;18.85;13.30;;;;;;;12.40;49.91;96808.00;4994541;28;20030;-77
2021/05/01 08:25:47;;;;;;;17.83;12.18;;;;;;;12.91;49.13;96810.44;5030239;28;20037;-76
2021/05/01 08:28:12;;;;;;;17.55;11.30;;;;;;;12.91;47.85;96818.28;5011293;28;20033;-77
2021/05/01 08:30:38;;;;;;;16.45;11.45;;;;;;;12.71;48.12;96820.97;4994580;28;20041;-77
2021/05/01 08:33:03;;;;;;;17.02;11.73;;;;;;;12.44;48.65;96829.94;5027119;28;20021;-77
2021/05/01 08:35:29;;;;;;;16.23;12.20;;;;;;;12.48;48.92;96814.50;5027084;28;20041;-77
2021/05/01 08:37:54;;;;;;;16.08;10.65;;;;;;;12.35;48.74;96808.81;5006167;28;20080;-77
2021/05/01 08:40:20;;;;;;;15.93;10.85;;;;;;;12.49;49.29;96808.22;5041803;28;20450;-77
2021/05/01 08:42:46;;;;;;;16.20;11.32;;;;;;;12.23;48.89;96805.66;5026909;28;20276;-76
2021/05/01 08:45:14;;;;;;;17.83;10.43;;;;;;;12.19;49.57;96807.25;5025260;28;20036;-77
2021/05/01 08:47:45;;;;;;;15.98;11.52;;;;;;;12.25;49.65;96823.69;5027996;28;20025;-76
2021/05/01 08:50:26;;;;;;;17.50;12.45;;;;;;;12.17;48.70;96822.41;5012101;28;20033;-77
2021/05/01 08:52:55;;;;;;;16.35;10.93;;;;;;;12.44;48.73;96822.09;5027707;28;20026;-77
2021/05/01 08:55:22;;;;;;;16.88;10.82;;;;;;;12.71;48.48;96834.81;5030858;28;20508;-77
2021/05/01 08:57:48;;;;;;;14.02;9.90;;;;;;;12.71;48.77;96836.63;5012326;28;20408;-77
2021/05/01 09:00:14;;;;;;;14.93;10.65;;;;;;;12.80;48.67;96837.66;5028568;28;20037;-77
2021/05/01 09:02:40;;;;;;;13.63;10.23;;;;;;;12.64;47.73;96828.31;5027855;28;20068;-77
2021/05/01 09:05:09;;;;;;;17.13;10.75;;;;;;;12.80;49.10;96822.00;5044838;28;20048;-77
2021/05/01 09:07:38;;;;;;;16.52;11.63;;;;;;;12.90;48.66;96821.97;5028773;28;20034;-77
2021/05/01 09:10:06;;;;;;;13.95;9.93;;;;;;;13.07;47.93;96815.59;5045639;28;20481;-78
2021/05/01 09:12:38;;;;;;;15.30;10.63;;;;;;;13.20;47.65;96817.63;5024429;28;20121;-76
2021/05/01 09:15:06;;;;;;;14.43;10.07;;;;;;;13.03;46.67;96811.97;4992893;28;20030;-77
2021/05/01 09:17:32;;;;;;;14.85;10.88;;;;;;;13.24;47.29;96818.63;5042288;28;20076;-77
2021/05/01 09:20:06;;;;;;;14.85;11.10;;;;;;;13.00;47.66;96815.13;5010989;28;20568;-77
2021/05/01 09:22:31;;;;;;;14.15;10.05;;;;;;;13.23;46.53;96811.88;5028366;28;20080;-77
2021/05/01 09:25:07;;;;;;;15.98;10.85;;;;;;;13.16;47.36;96816.63;5028839;28;20065;-76
2021/05/01 09:27:34;;;;;;;14.02;10.35;;;;;;;13.16;47.19;96818.44;5045359;28;20031;-77
2021/05/01 09:30:12;;;;;;;15.60;10.90;;;;;;;13.05;48.00;96820.31;5031795;28;20033;-77
2021/05/01 09:32:37;;;;;;;15.32;10.38;;;;;;;13.66;46.81;96819.22;5049788;28;20036;-77
2021/05/01 09:35:03;;;;;;;15.27;10.88;;;;;;;13.62;46.63;96812.94;5016482;28;20029;-77
2021/05/01 09:37:29;;;;;;;14.13;10.25;;;;;;;13.76;46.41;96807.88;5046619;28;20489;-77
2021/05/01 09:39:57;;;;;;;15.00;10.75;;;;;;;13.61;45.56;96798.31;5031639;28;20037;-77
2021/05/01 09:42:24;;;;;;;16.15;11.35;;;;;;;13.56;46.33;96798.38;5030105;28;20029;-76
2021/05/01 09:45:19;;;;;;;13.70;9.85;;;;;;;13.53;46.19;96788.44;5046695;28;20052;-77
2021/05/01 09:47:48;;;;;;;17.70;10.85;;;;;;;13.92;45.57;96808.56;5046187;28;20033;-77
2021/05/01 09:50:22;;;;;;;16.50;11.48;;;;;;;13.84;45.55;96807.31;5047351;28;20037;-78
2021/05/01 09:53:07;;;;;;;13.88;10.02;;;;;;;14.15;44.74;96804.41;5016065;28;20036;-77
2021/05/01 09:55:51;;;;;;;17.45;11.00;;;;;;;14.27;45.13;96801.44;5015941;28;20113;-78
2021/05/01 09:58:27;;;;;;;16.05;10.95;;;;;;;14.53;43.51;96794.09;5047795;28;20479;-77
2021/05/01 10:01:08;;;;;;;15.93;11.10;;;;;;;14.39;44.39;96797.41;5031366;28;20037;-77
2021/05/01 10:03:33;;;;;;;14.82;11.18;;;;;;;14.44;43.64;96791.28;5014487;28;20135;-77
2021/05/01 10:06:00;;;;;;;16.52;11.95;;;;;;;14.48;44.62;96792.31;5014109;28;20164;-77
2021/05/01 10:08:29;;;;;;;18.20;11.55;;;;;;;14.35;43.62;96800.84;5015050;28;20044;-77
2021/05/01 10:10:55;;;;;;;16.05;11.25;;;;;;;14.46;44.11;96797.03;5047624;28;20583;-77
2021/05/01 10:13:22;;;;;;;16.50;11.88;;;;;;;14.40;44.53;96791.06;5030157;28;20108;-77
2021/05/01 10:15:48;;;;;;;14.93;10.85;;;;;;;14.59;44.14;96795.63;5047447;28;20037;-77
2021/05/01 10:18:19;;;;;;;19.05;12.50;;;;;;;14.28;44.22;96792.53;5029779;28;20113;-77
2021/05/01 10:20:49;;;;;;;19.40;13.23;;;;;;;14.47;43.35;96795.22;5030777;28;20366;-77
2021/05/01 10:23:18;;;;;;;18.58;12.90;;;;;;;14.65;44.44;96796.34;5013866;28;20025;-77
2021/05/01 10:25:45;;;;;;;19.38;13.65;;;;;;;14.30;44.13;96790.41;5014838;28;20029;-77
2021/05/01 10:28:14;;;;;;;17.80;13.13;;;;;;;14.40;44.41;96798.16;5013941;28;20025;-77
2021/05/01 10:30:55;;;;;;;19.48;14.90;;;;;;;14.15;43.61;96796.56;5032540;28;20049;-78
2021/05/01 10:33:36;;;;;;;21.15;14.35;;;;;;;14.37;43.75;96793.47;5046691;28;20036;-77
2021/05/01 10:36:27;;;;;;;20.92;14.95;;;;;;;14.15;44.53;96793.94;5015777;28;20462;-78
2021/05/01 10:39:01;;;;;;;17.50;13.63;;;;;;;14.01;44.55;96793.81;5004459;28;20401;-78
2021/05/01 10:41:30;;;;;;;18.05;13.52;;;;;;;14.45;44.07;96795.50;5028401;28;20034;-78
2021/05/01 10:43:57;;;;;;;18.67;13.88;;;;;;;14.38;44.50;96797.66;5046985;28;20102;-77
2021/05/01 10:46:32;;;;;;;19.55;13.70;;;;;;;13.78;44.24;96805.78;5029076;28;20034;-78
2021/05/01 10:49:11;;;;;;;15.63;12.27;;;;;;;14.33;43.96;96800.34;5014556;28;20484;-78
2021/05/01 10:51:43;;;;;;;17.55;12.63;;;;;;;14.75;41.81;96799.66;5030910;28;20041;-78
2021/05/01 10:54:14;;;;;;;18.45;14.40;;;;;;;14.66;42.71;96797.91;5031607;28;20040;-78
2021/05/01 10:56:45;;;;;;;18.33;12.68;;;;;;;14.69;41.35;96807.84;5031224;28;20026;-78
2021/05/01 10:59:14;;;;;;;16.70;12.65;;;;;;;15.00;41.54;96802.25;5030986;28;20034;-77
2021/05/01 11:01:48;;;;;;;18.80;13.07;;;;;;;15.21;40.82;96792.25;5030648;28;20037;-77
2021/05/01 11:04:31;;;;;;;16.92;12.15;;;;;;;14.74;41.24;96789.44;5044501;28;20385;-77
2021/05/01 11:07:39;;;;;;;17.25;12.75;;;;;;;14.69;42.97;96785.03;5044977;28;20057;-77
2021/05/01 11:10:07;;;;;;;19.15;13.05;;;;;;;14.98;41.90;96789.41;5020538;28;20537;-77
2021/05/01 11:12:38;;;;;;;19.63;12.93;;;;;;;15.02;41.83;96795.63;5027100;28;20088;-77
2021/05/01 11:15:04;;;;;;;16.75;12.18;;;;;;;15.30;41.01;96793.97;5011998;28;20448;-77
2021/05/01 11:17:30;;;;;;;20.17;13.77;;;;;;;15.10;41.94;96789.78;5028067;28;20066;-77
2021/05/01 11:20:10;;;;;;;16.65;12.38;;;;;;;15.03;41.23;96784.09;5012168;28;20094;-77
2021/05/01 11:22:44;;;;;;;19.17;12.40;;;;;;;14.91;41.16;96789.75;5028311;28;20092;-77
2021/05/01 11:25:12;;;;;;;18.85;12.68;;;;;;;15.35;40.99;96777.34;5029453;28;20151;-77